X  ZavřítMETAR data      LKPD Pardubice Airport

Teplota

28°C Teplota

12°C Rosný bod

37% Vlhkost



Vítr

 5 KM/H

 3 MPH

 1 M/S

 3 KTS



160°
JJV směr
Současné podmínky

Jasno Jasno
Tlak vzduchu 1016.92 (hPa) - 30.03 (in)
Dohlednost 6.2 (mi) - 10 (km)
Letiště
Kód letiště LKPD

Lokace Pardubice Airport 80 (km)

Metar:
LKPD 161300Z 16003KT 120V230 CAVOK 28/12 Q1017 NOSIG RMK BLU BLU

Čas: 16-06-2021 15:00